Terminal Aerodrome Forecast
Issued by NWS Jackson, MS

Home | Current Version | Previous Version | Text Only | Print | Product List | Glossary On
Versions: 1 2 3 4 5 6 7 8 9 10 11 12 13 14 15 16 17 18 19 20 21 22 23 24 25
000
FTUS44 KMEG 261134
TAFTUP
TAF
KTUP 261134Z 2612/2712 20010KT P6SM VCSH SCT015 OVC030
      TEMPO 2612/2614 4SM -SHRA BKN008 OVC015
     FM261400 21011KT 5SM -RA OVC015
     FM261900 20011G20KT P6SM VCSH OVC025
     FM262200 19010KT P6SM BKN035
     FM270100 18006KT P6SM BKN050
     FM270600 19003KT 5SM BR SCT250
      TEMPO 2709/2712 5SM BR BKN003=

USA.gov is the U.S. government's official web portal to all federal, state and local government web resources and services.